createdAt,value
2018-03-14T00:00:50.954Z,15.50
2018-03-14T00:01:50.870Z,15.10
2018-03-14T00:02:50.794Z,15.90
2018-03-14T00:03:50.711Z,14.30
2018-03-14T00:04:50.621Z,15.20
2018-03-14T00:05:50.545Z,14.40
2018-03-14T00:06:50.455Z,14.80
2018-03-14T00:07:50.380Z,15.20
2018-03-14T00:08:50.296Z,15.70
2018-03-14T00:09:50.221Z,15.90
2018-03-14T00:10:50.133Z,16.00
2018-03-14T00:11:50.042Z,14.90
2018-03-14T00:12:49.981Z,16.00
2018-03-14T00:13:49.884Z,15.70
2018-03-14T00:14:49.809Z,15.80
2018-03-14T00:15:49.721Z,16.20
2018-03-14T00:16:49.634Z,16.80
2018-03-14T00:17:49.561Z,16.30
2018-03-14T00:18:49.482Z,17.40
2018-03-14T00:19:49.393Z,16.20
2018-03-14T00:20:49.307Z,16.70
2018-03-14T00:21:49.233Z,17.20
2018-03-14T00:22:49.147Z,16.80
2018-03-14T00:23:49.064Z,16.80
2018-03-14T00:24:48.986Z,16.70
2018-03-14T00:25:48.897Z,16.50
2018-03-14T00:26:48.819Z,17.10
2018-03-14T00:27:48.736Z,17.50
2018-03-14T00:28:48.657Z,16.20
2018-03-14T00:29:48.570Z,16.90
2018-03-14T00:30:48.483Z,16.90
2018-03-14T00:31:48.412Z,17.70
2018-03-14T00:32:48.321Z,16.60
2018-03-14T00:33:48.244Z,16.80
2018-03-14T00:34:48.158Z,17.70
2018-03-14T00:35:48.089Z,17.40
2018-03-14T00:36:47.997Z,17.30
2018-03-14T00:37:47.910Z,16.80
2018-03-14T00:38:47.838Z,17.10
2018-03-14T00:39:47.746Z,18.10
2018-03-14T00:40:47.671Z,17.60
2018-03-14T00:41:47.587Z,17.40
2018-03-14T00:42:47.501Z,17.30
2018-03-14T00:43:47.425Z,17.30
2018-03-14T00:44:47.337Z,16.70
2018-03-14T00:45:47.259Z,18.10
2018-03-14T00:46:47.171Z,18.30
2018-03-14T00:47:47.086Z,19.20
2018-03-14T00:48:47.010Z,17.10
2018-03-14T00:49:46.921Z,18.60
2018-03-14T00:50:46.848Z,17.10
2018-03-14T00:51:46.762Z,17.90
2018-03-14T00:52:46.686Z,17.30
2018-03-14T00:53:46.598Z,18.30
2018-03-14T00:54:46.512Z,18.70
2018-03-14T00:55:46.435Z,18.10
2018-03-14T00:56:46.347Z,18.00
2018-03-14T00:57:46.277Z,19.50
2018-03-14T00:58:46.190Z,18.20
2018-03-14T00:59:46.107Z,18.30
2018-03-14T01:00:46.027Z,17.30
2018-03-14T01:01:45.935Z,17.80
2018-03-14T01:02:45.861Z,18.00
2018-03-14T01:03:45.776Z,16.70
2018-03-14T01:04:45.700Z,16.70
2018-03-14T01:05:45.619Z,17.60
2018-03-14T01:06:45.525Z,17.20
2018-03-14T01:07:45.465Z,16.20
2018-03-14T01:08:45.365Z,17.40
2018-03-14T01:09:45.292Z,16.30
2018-03-14T01:10:45.199Z,18.10
2018-03-14T01:11:45.127Z,17.70
2018-03-14T01:12:45.043Z,16.70
2018-03-14T01:13:44.951Z,17.10
2018-03-14T01:14:44.878Z,16.80
2018-03-14T01:15:44.788Z,16.50
2018-03-14T01:16:44.713Z,17.10
2018-03-14T01:17:44.626Z,16.20
2018-03-14T01:18:44.550Z,16.40
2018-03-14T01:19:44.467Z,15.70
2018-03-14T01:20:44.392Z,16.10
2018-03-14T01:21:44.304Z,16.20
2018-03-14T01:22:44.217Z,15.80
2018-03-14T01:23:44.142Z,15.60
2018-03-14T01:24:44.051Z,16.50
2018-03-14T01:25:43.968Z,16.50
2018-03-14T01:26:43.907Z,15.90
2018-03-14T01:27:43.804Z,15.10
2018-03-14T01:28:43.729Z,14.60
2018-03-14T01:29:43.644Z,16.10
2018-03-14T01:30:43.567Z,15.30
2018-03-14T01:31:43.481Z,15.20
2018-03-14T01:32:43.394Z,14.70
2018-03-14T01:33:43.315Z,16.10
2018-03-14T01:34:43.227Z,15.60
2018-03-14T01:35:43.151Z,15.50
2018-03-14T01:36:43.064Z,14.40
2018-03-14T01:37:42.978Z,14.60
2018-03-14T01:38:42.905Z,14.80
2018-03-14T01:39:42.818Z,14.40
2018-03-14T01:40:42.741Z,14.80
2018-03-14T01:41:42.658Z,15.60
2018-03-14T01:42:42.579Z,14.60
2018-03-14T01:43:42.491Z,15.90
2018-03-14T01:44:42.406Z,15.60
2018-03-14T01:45:42.332Z,15.60
2018-03-14T01:46:42.244Z,14.50
2018-03-14T01:47:42.166Z,13.80
2018-03-14T01:48:42.078Z,14.10
2018-03-14T01:49:42.003Z,14.90
2018-03-14T01:50:41.919Z,15.30
2018-03-14T01:51:41.831Z,14.50
2018-03-14T01:52:41.758Z,14.30
2018-03-14T01:53:41.670Z,14.60
2018-03-14T01:54:41.596Z,14.60
2018-03-14T01:55:41.504Z,15.20
2018-03-14T01:56:41.420Z,13.70
2018-03-14T01:57:41.346Z,13.60
2018-03-14T01:58:41.268Z,14.60
2018-03-14T01:59:41.183Z,14.20
2018-03-14T02:00:41.096Z,14.60
2018-03-14T02:01:41.011Z,14.50
2018-03-14T02:02:40.930Z,14.80
2018-03-14T02:03:40.843Z,14.90
2018-03-14T02:04:40.769Z,14.60
2018-03-14T02:05:40.679Z,13.90
2018-03-14T02:06:40.605Z,13.30
2018-03-14T02:07:40.519Z,14.50
2018-03-14T02:08:40.448Z,13.40
2018-03-14T02:09:40.359Z,13.80
2018-03-14T02:10:40.277Z,12.70
2018-03-14T02:11:40.197Z,13.00
2018-03-14T02:12:40.109Z,13.70
2018-03-14T02:13:40.020Z,13.40
2018-03-14T02:14:39.948Z,13.00
2018-03-14T02:15:39.857Z,13.10
2018-03-14T02:16:39.785Z,12.40
2018-03-14T02:17:39.696Z,11.70
2018-03-14T02:18:39.612Z,12.60
2018-03-14T02:19:39.536Z,12.60
2018-03-14T02:20:39.445Z,12.70
2018-03-14T02:21:39.375Z,12.00
2018-03-14T02:22:39.281Z,12.30
2018-03-14T02:23:39.200Z,11.70
2018-03-14T02:24:39.121Z,12.10
2018-03-14T02:25:39.036Z,11.50
2018-03-14T02:26:38.970Z,11.90
2018-03-14T02:27:38.871Z,12.00
2018-03-14T02:28:38.787Z,11.10
2018-03-14T02:29:38.712Z,12.10
2018-03-14T02:30:38.624Z,11.10
2018-03-14T02:31:38.545Z,11.00
2018-03-14T02:32:38.462Z,11.70
2018-03-14T02:33:38.383Z,11.20
2018-03-14T02:34:38.299Z,11.30
2018-03-14T02:35:38.210Z,10.80
2018-03-14T02:36:38.151Z,10.90
2018-03-14T02:37:38.053Z,10.10
2018-03-14T02:38:37.976Z,11.10
2018-03-14T02:39:37.887Z,11.30
2018-03-14T02:40:37.798Z,9.80
2018-03-14T02:41:37.722Z,10.30
2018-03-14T02:42:37.638Z,10.10
2018-03-14T02:43:37.563Z,10.60
2018-03-14T02:44:37.473Z,10.40
2018-03-14T02:45:37.394Z,10.50
2018-03-14T02:46:37.314Z,10.30
2018-03-14T02:47:37.226Z,11.00
2018-03-14T02:48:37.136Z,10.30
2018-03-14T02:49:37.063Z,9.70
2018-03-14T02:50:36.973Z,10.10
2018-03-14T02:51:36.901Z,9.20
2018-03-14T02:52:36.814Z,10.20
2018-03-14T02:53:36.739Z,9.90
2018-03-14T02:54:36.650Z,10.00
2018-03-14T02:55:36.560Z,9.90
2018-03-14T02:56:36.490Z,9.80
2018-03-14T02:57:36.402Z,10.70
2018-03-14T02:58:36.328Z,9.30
2018-03-14T02:59:36.240Z,9.00
2018-03-14T03:00:36.148Z,9.90
2018-03-14T03:01:36.074Z,9.90
2018-03-14T03:02:35.990Z,9.50
2018-03-14T03:03:35.901Z,9.50
2018-03-14T03:04:35.834Z,9.70
2018-03-14T03:05:35.739Z,9.70
2018-03-14T03:06:35.661Z,10.40
2018-03-14T03:07:35.580Z,10.70
2018-03-14T03:08:35.488Z,9.80
2018-03-14T03:09:35.429Z,9.50
2018-03-14T03:10:35.326Z,9.50
2018-03-14T03:11:35.250Z,10.50
2018-03-14T03:12:35.167Z,10.20
2018-03-14T03:13:35.090Z,9.70
2018-03-14T03:14:35.000Z,10.10
2018-03-14T03:15:34.912Z,10.40
2018-03-14T03:16:34.838Z,9.80
2018-03-14T03:17:34.755Z,10.40
2018-03-14T03:18:34.676Z,9.60
2018-03-14T03:19:34.592Z,9.70
2018-03-14T03:20:34.500Z,9.70
2018-03-14T03:21:34.426Z,10.10
2018-03-14T03:22:34.340Z,9.80
2018-03-14T03:23:34.267Z,10.20
2018-03-14T03:24:34.180Z,10.20
2018-03-14T03:25:34.097Z,10.00
2018-03-14T03:26:34.016Z,9.80
2018-03-14T03:27:33.931Z,9.80
2018-03-14T03:28:33.844Z,10.10
2018-03-14T03:29:33.770Z,11.00
2018-03-14T03:30:33.678Z,10.40
2018-03-14T03:31:33.603Z,9.80
2018-03-14T03:32:33.518Z,10.20
2018-03-14T03:33:33.457Z,10.20
2018-03-14T03:34:33.353Z,10.70
2018-03-14T03:35:33.269Z,10.30
2018-03-14T03:36:33.190Z,10.20
2018-03-14T03:37:33.106Z,10.50
2018-03-14T03:38:33.029Z,9.50
2018-03-14T03:39:32.957Z,10.20
2018-03-14T03:40:32.853Z,10.70
2018-03-14T03:41:32.778Z,10.00
2018-03-14T03:42:32.695Z,11.00
2018-03-14T03:43:32.617Z,10.30
2018-03-14T03:44:32.532Z,11.10
2018-03-14T03:45:32.458Z,10.90
2018-03-14T03:46:32.366Z,11.30
2018-03-14T03:47:32.282Z,11.50
2018-03-14T03:48:32.206Z,11.40
2018-03-14T03:49:32.120Z,10.30
2018-03-14T03:50:32.034Z,11.60
2018-03-14T03:51:31.960Z,11.00
2018-03-14T03:52:31.867Z,10.80
2018-03-14T03:53:31.792Z,10.90
2018-03-14T03:54:31.705Z,11.20
2018-03-14T03:55:31.620Z,11.00
2018-03-14T03:56:31.546Z,10.70
2018-03-14T03:57:31.461Z,11.30
2018-03-14T03:58:31.381Z,10.90
2018-03-14T03:59:31.306Z,10.40
2018-03-14T04:00:31.206Z,10.60
2018-03-14T04:01:31.134Z,10.50
2018-03-14T04:02:31.043Z,10.70
2018-03-14T04:03:30.968Z,10.80
2018-03-14T04:04:30.881Z,10.70
2018-03-14T04:05:30.797Z,10.80
2018-03-14T04:06:30.718Z,10.60
2018-03-14T04:07:30.633Z,10.80
2018-03-14T04:08:30.560Z,10.90
2018-03-14T04:09:30.468Z,11.10
2018-03-14T04:10:30.405Z,10.40
2018-03-14T04:11:30.311Z,10.10
2018-03-14T04:12:30.219Z,10.40
2018-03-14T04:13:30.147Z,10.30
2018-03-14T04:14:30.057Z,10.10
2018-03-14T04:15:29.982Z,10.30
2018-03-14T04:16:29.896Z,10.10
2018-03-14T04:17:29.807Z,10.30
2018-03-14T04:18:29.740Z,9.60
2018-03-14T04:19:29.646Z,9.40
2018-03-14T04:20:29.574Z,9.90
2018-03-14T04:21:29.494Z,10.50
2018-03-14T04:22:29.408Z,9.70
2018-03-14T04:23:29.324Z,10.10
2018-03-14T04:24:29.235Z,9.90
2018-03-14T04:25:29.162Z,9.90
2018-03-14T04:26:29.070Z,10.00
2018-03-14T04:27:28.987Z,9.90
2018-03-14T04:28:28.908Z,9.50
2018-03-14T04:29:28.822Z,9.30
2018-03-14T04:30:28.749Z,9.80
2018-03-14T04:31:28.699Z,10.10
2018-03-14T04:32:28.576Z,9.80
2018-03-14T04:33:28.514Z,9.20
2018-03-14T04:34:28.413Z,9.00
2018-03-14T04:35:28.339Z,9.50
2018-03-14T04:36:28.251Z,8.70
2018-03-14T04:37:28.172Z,10.10
2018-03-14T04:38:28.085Z,9.30
2018-03-14T04:39:28.003Z,9.20
2018-03-14T04:40:27.922Z,8.90
2018-03-14T04:41:27.838Z,8.90
2018-03-14T04:42:27.765Z,8.40
2018-03-14T04:43:27.674Z,8.80
2018-03-14T04:44:27.588Z,8.60
2018-03-14T04:45:27.510Z,8.90
2018-03-14T04:46:27.424Z,9.20
2018-03-14T04:47:27.349Z,8.90
2018-03-14T04:48:27.262Z,9.40
2018-03-14T04:49:27.178Z,9.00
2018-03-14T04:50:27.111Z,8.20
2018-03-14T04:51:27.014Z,8.30
2018-03-14T04:52:26.941Z,8.70
2018-03-14T04:53:26.854Z,7.50
2018-03-14T04:54:26.773Z,8.50
2018-03-14T04:55:26.687Z,8.10
2018-03-14T04:56:26.631Z,7.60
2018-03-14T04:57:26.528Z,7.40
2018-03-14T04:58:26.446Z,7.30
2018-03-14T04:59:26.350Z,7.80
2018-03-14T05:00:26.275Z,7.90
2018-03-14T05:01:26.187Z,8.10
2018-03-14T05:02:26.113Z,7.90
2018-03-14T05:03:26.026Z,7.40
2018-03-14T05:04:25.953Z,7.60
2018-03-14T05:05:25.864Z,8.20
2018-03-14T05:06:25.776Z,7.40
2018-03-14T05:07:25.752Z,6.50
2018-03-14T05:08:25.613Z,6.90
2018-03-14T05:09:25.540Z,7.10
2018-03-14T05:10:25.455Z,7.30
2018-03-14T05:11:25.365Z,7.10
2018-03-14T05:12:25.293Z,7.10
2018-03-14T05:13:25.204Z,7.40
2018-03-14T05:14:25.130Z,7.30
2018-03-14T05:15:25.039Z,7.50
2018-03-14T05:16:24.965Z,6.90
2018-03-14T05:17:24.881Z,7.10
2018-03-14T05:18:24.793Z,6.60
2018-03-14T05:19:24.715Z,7.10
2018-03-14T05:20:24.630Z,7.20
2018-03-14T05:21:24.555Z,6.90
2018-03-14T05:22:24.468Z,6.80
2018-03-14T05:23:24.378Z,7.40
2018-03-14T05:24:24.302Z,7.30
2018-03-14T05:25:24.219Z,7.10
2018-03-14T05:26:24.149Z,7.00
2018-03-14T05:27:24.053Z,6.70
2018-03-14T05:28:23.975Z,6.70
2018-03-14T05:29:23.898Z,6.70
2018-03-14T05:30:23.803Z,6.60
2018-03-14T05:31:23.743Z,6.40
2018-03-14T05:32:23.642Z,7.50
2018-03-14T05:33:23.566Z,7.10
2018-03-14T05:34:23.478Z,6.90
2018-03-14T05:35:23.391Z,6.60
2018-03-14T05:36:23.321Z,6.60
2018-03-14T05:37:23.230Z,6.60
2018-03-14T05:38:23.156Z,6.80
2018-03-14T05:39:23.067Z,6.90
2018-03-14T05:40:22.979Z,7.10
2018-03-14T05:41:22.904Z,6.80
2018-03-14T05:42:22.831Z,6.50
2018-03-14T05:43:22.747Z,7.00
2018-03-14T05:44:22.656Z,7.00
2018-03-14T05:45:22.569Z,6.50
2018-03-14T05:46:22.496Z,6.50
2018-03-14T05:47:22.408Z,6.90
2018-03-14T05:48:22.334Z,6.60
2018-03-14T05:49:22.247Z,7.10
2018-03-14T05:50:22.167Z,6.20
2018-03-14T05:51:22.084Z,6.40
2018-03-14T05:52:21.998Z,6.80
2018-03-14T05:53:21.923Z,6.50
2018-03-14T05:54:21.831Z,6.50
2018-03-14T05:55:21.773Z,6.80
2018-03-14T05:56:21.668Z,6.10
2018-03-14T05:57:21.586Z,6.60
2018-03-14T05:58:21.510Z,6.50
2018-03-14T05:59:21.431Z,6.80
2018-03-14T06:00:21.350Z,6.70
2018-03-14T06:01:21.270Z,6.50
2018-03-14T06:02:21.170Z,6.70
2018-03-14T06:03:21.094Z,6.10
2018-03-14T06:04:21.007Z,6.30
2018-03-14T06:05:20.974Z,6.20
2018-03-14T06:06:20.847Z,6.40
2018-03-14T06:07:20.769Z,6.60
2018-03-14T06:08:20.685Z,6.60
2018-03-14T06:09:20.600Z,6.20
2018-03-14T06:10:20.524Z,6.20
2018-03-14T06:11:20.437Z,6.70
2018-03-14T06:12:20.373Z,6.10
2018-03-14T06:13:20.271Z,6.70
2018-03-14T06:14:20.185Z,6.30
2018-03-14T06:15:20.112Z,6.70
2018-03-14T06:16:20.026Z,6.00
2018-03-14T06:17:19.945Z,6.20
2018-03-14T06:18:19.862Z,6.80
2018-03-14T06:19:19.792Z,6.50
2018-03-14T06:20:19.697Z,6.50
2018-03-14T06:21:19.612Z,6.40
2018-03-14T06:22:19.534Z,6.80
2018-03-14T06:23:19.447Z,6.00
2018-03-14T06:24:19.373Z,6.60
2018-03-14T06:25:19.288Z,6.40
2018-03-14T06:26:19.214Z,6.50
2018-03-14T06:27:19.125Z,6.40
2018-03-14T06:28:19.035Z,6.40
2018-03-14T06:29:18.959Z,6.30
2018-03-14T06:30:18.874Z,6.20
2018-03-14T06:31:18.803Z,6.20
2018-03-14T06:32:18.710Z,6.40
2018-03-14T06:33:18.624Z,6.40
2018-03-14T06:34:18.549Z,6.10
2018-03-14T06:35:18.464Z,6.40
2018-03-14T06:36:18.386Z,6.40
2018-03-14T06:37:18.298Z,6.90
2018-03-14T06:38:18.223Z,6.70
2018-03-14T06:39:18.137Z,6.40
2018-03-14T06:40:18.053Z,6.40
2018-03-14T06:41:17.979Z,6.50
2018-03-14T06:42:17.886Z,6.50
2018-03-14T06:43:17.813Z,6.90
2018-03-14T06:44:17.728Z,6.70
2018-03-14T06:45:17.650Z,6.80
2018-03-14T06:46:17.564Z,6.70
2018-03-14T06:47:17.478Z,6.60
2018-03-14T06:48:17.399Z,6.70
2018-03-14T06:49:17.312Z,7.10
2018-03-14T06:50:17.242Z,7.30
2018-03-14T06:51:17.154Z,7.50
2018-03-14T06:52:17.080Z,7.20
2018-03-14T06:53:16.995Z,7.20
2018-03-14T06:54:16.912Z,7.10
2018-03-14T06:55:16.829Z,7.60
2018-03-14T06:56:16.742Z,7.50
2018-03-14T06:57:16.664Z,7.30
2018-03-14T06:58:16.580Z,7.00
2018-03-14T06:59:16.501Z,7.20
2018-03-14T07:00:16.414Z,6.90
2018-03-14T07:01:16.342Z,8.00
2018-03-14T07:02:16.252Z,7.20
2018-03-14T07:03:16.165Z,7.70
2018-03-14T07:04:16.089Z,7.80
2018-03-14T07:05:16.002Z,7.40
2018-03-14T07:06:15.926Z,7.40
2018-03-14T07:07:15.852Z,7.80
2018-03-14T07:08:15.763Z,8.00
2018-03-14T07:09:15.680Z,7.60
2018-03-14T07:10:15.602Z,8.20
2018-03-14T07:11:15.515Z,8.00
2018-03-14T07:12:15.454Z,7.60
2018-03-14T07:13:15.353Z,8.20
2018-03-14T07:14:15.281Z,8.30
2018-03-14T07:15:15.190Z,7.80
2018-03-14T07:16:15.104Z,8.20
2018-03-14T07:17:15.029Z,7.90
2018-03-14T07:18:14.941Z,8.00
2018-03-14T07:19:14.869Z,8.40
2018-03-14T07:20:14.785Z,7.60
2018-03-14T07:21:14.708Z,8.60
2018-03-14T07:22:14.619Z,7.90
2018-03-14T07:23:14.546Z,7.90
2018-03-14T07:24:14.458Z,8.10
2018-03-14T07:25:14.384Z,8.50
2018-03-14T07:26:14.291Z,8.20
2018-03-14T07:27:14.217Z,8.10
2018-03-14T07:28:14.129Z,8.50
2018-03-14T07:29:14.058Z,8.30
2018-03-14T07:30:13.979Z,8.50
2018-03-14T07:31:13.897Z,8.40
2018-03-14T07:32:13.805Z,8.50
2018-03-14T07:33:13.719Z,8.70
2018-03-14T07:34:13.643Z,8.40
2018-03-14T07:35:13.555Z,8.40
2018-03-14T07:36:13.484Z,8.60
2018-03-14T07:37:13.406Z,8.40
2018-03-14T07:38:13.319Z,8.50
2018-03-14T07:39:13.235Z,8.90
2018-03-14T07:40:13.165Z,8.50
2018-03-14T07:41:13.067Z,9.00
2018-03-14T07:42:12.993Z,8.20
2018-03-14T07:43:12.905Z,8.60
2018-03-14T07:44:12.835Z,8.90
2018-03-14T07:45:12.747Z,8.30
2018-03-14T07:46:12.672Z,8.70
2018-03-14T07:47:12.587Z,8.70
2018-03-14T07:48:12.507Z,8.30
2018-03-14T07:49:12.432Z,9.10
2018-03-14T07:50:12.345Z,8.60
2018-03-14T07:51:12.261Z,8.60
2018-03-14T07:52:12.182Z,9.50
2018-03-14T07:53:12.096Z,8.90
2018-03-14T07:54:12.038Z,8.80
2018-03-14T07:55:11.932Z,9.20
2018-03-14T07:56:11.850Z,9.00
2018-03-14T07:57:11.786Z,9.10
2018-03-14T07:58:11.730Z,9.20
2018-03-14T07:59:11.656Z,9.40
2018-03-14T08:00:11.533Z,9.20
2018-03-14T08:01:11.493Z,9.70
2018-03-14T08:02:11.360Z,9.60
2018-03-14T08:03:11.283Z,9.80
2018-03-14T08:04:11.200Z,9.60
2018-03-14T08:05:11.120Z,10.00
2018-03-14T08:06:11.037Z,10.00
2018-03-14T08:07:10.962Z,9.90
2018-03-14T08:08:10.875Z,10.10
2018-03-14T08:09:10.802Z,9.50
2018-03-14T08:10:10.712Z,10.10
2018-03-14T08:11:10.633Z,10.10
2018-03-14T08:12:10.548Z,10.00
2018-03-14T08:13:10.472Z,9.60
2018-03-14T08:14:10.389Z,9.90
2018-03-14T08:15:10.313Z,10.10
2018-03-14T08:16:10.226Z,9.50
2018-03-14T08:17:10.163Z,9.90
2018-03-14T08:18:10.063Z,9.50
2018-03-14T08:19:09.972Z,10.00
2018-03-14T08:20:09.901Z,10.90
2018-03-14T08:21:09.825Z,10.30
2018-03-14T08:22:09.736Z,11.00
2018-03-14T08:23:09.661Z,10.80
2018-03-14T08:24:09.577Z,10.80
2018-03-14T08:25:09.489Z,10.40
2018-03-14T08:26:09.410Z,11.30
2018-03-14T08:27:09.323Z,10.50
2018-03-14T08:28:09.261Z,10.80
2018-03-14T08:29:09.166Z,11.40
2018-03-14T08:30:09.087Z,11.20
2018-03-14T08:31:09.003Z,10.50
2018-03-14T08:32:08.936Z,11.10
2018-03-14T08:33:08.840Z,10.60
2018-03-14T08:34:08.766Z,11.40
2018-03-14T08:35:08.680Z,11.40
2018-03-14T08:36:08.587Z,11.10
2018-03-14T08:37:08.512Z,11.70
2018-03-14T08:38:08.427Z,12.00
2018-03-14T08:39:08.362Z,11.70
2018-03-14T08:40:08.266Z,11.10
2018-03-14T08:41:08.192Z,12.20
2018-03-14T08:42:08.099Z,12.00
2018-03-14T08:43:08.028Z,12.30
2018-03-14T08:44:07.941Z,12.70
2018-03-14T08:45:07.863Z,12.50
2018-03-14T08:46:07.779Z,12.60
2018-03-14T08:47:07.688Z,12.10
2018-03-14T08:48:07.617Z,12.30
2018-03-14T08:49:07.531Z,13.20
2018-03-14T08:50:07.451Z,13.90
2018-03-14T08:51:07.365Z,12.60
2018-03-14T08:52:07.288Z,12.50
2018-03-14T08:53:07.205Z,13.00
2018-03-14T08:54:07.134Z,12.70
2018-03-14T08:55:07.039Z,12.70
2018-03-14T08:56:06.954Z,12.30
2018-03-14T08:57:06.876Z,12.10
2018-03-14T08:58:06.793Z,13.00
2018-03-14T08:59:06.715Z,12.30
2018-03-14T09:00:06.630Z,12.70
2018-03-14T09:01:06.563Z,12.70
2018-03-14T09:02:06.465Z,11.60
2018-03-14T09:03:06.394Z,13.00
2018-03-14T09:04:06.309Z,12.70
2018-03-14T09:05:06.244Z,11.80
2018-03-14T09:06:06.140Z,12.00
2018-03-14T09:07:06.065Z,12.70
2018-03-14T09:08:05.978Z,12.70
2018-03-14T09:09:05.903Z,12.20
2018-03-14T09:10:05.822Z,12.60
2018-03-14T09:11:05.734Z,12.30
2018-03-14T09:12:05.653Z,11.70
2018-03-14T09:13:05.571Z,12.20
2018-03-14T09:14:05.493Z,12.20
2018-03-14T09:15:05.403Z,13.30
2018-03-14T09:16:05.328Z,11.80
2018-03-14T09:17:05.244Z,12.20
2018-03-14T09:18:05.170Z,11.80
2018-03-14T09:19:05.091Z,12.20
2018-03-14T09:20:05.008Z,12.90
2018-03-14T09:21:04.924Z,11.70
2018-03-14T09:22:04.843Z,12.40
2018-03-14T09:23:04.753Z,11.20
2018-03-14T09:24:04.681Z,12.30
2018-03-14T09:25:04.593Z,12.10
2018-03-14T09:26:04.520Z,11.50
2018-03-14T09:27:04.433Z,11.70
2018-03-14T09:28:04.357Z,11.70
2018-03-14T09:29:04.269Z,11.40
2018-03-14T09:30:04.193Z,11.60
2018-03-14T09:31:04.109Z,11.50
2018-03-14T09:32:04.034Z,11.40
2018-03-14T09:33:03.945Z,11.80
2018-03-14T09:34:03.872Z,11.40
2018-03-14T09:35:03.781Z,11.40
2018-03-14T09:36:03.708Z,11.80
2018-03-14T09:37:03.630Z,11.70
2018-03-14T09:38:03.545Z,10.70
2018-03-14T09:39:03.458Z,10.70
2018-03-14T09:40:03.395Z,11.50
2018-03-14T09:41:03.306Z,11.30
2018-03-14T09:42:03.221Z,10.70
2018-03-14T09:43:03.144Z,10.80
2018-03-14T09:44:03.056Z,10.70
2018-03-14T09:45:02.994Z,10.80
2018-03-14T09:46:02.944Z,10.90
2018-03-14T09:47:02.825Z,10.30
2018-03-14T09:48:02.732Z,10.30
2018-03-14T09:49:02.658Z,9.90
2018-03-14T09:50:02.576Z,10.50
2018-03-14T09:51:02.499Z,10.70
2018-03-14T09:52:02.428Z,10.10
2018-03-14T09:53:02.332Z,9.90
2018-03-14T09:54:02.258Z,9.60
2018-03-14T09:55:02.170Z,9.40
2018-03-14T09:56:02.100Z,9.60
2018-03-14T09:57:02.008Z,9.60
2018-03-14T09:58:01.957Z,9.40
2018-03-14T09:59:01.871Z,9.20
2018-03-14T10:00:01.772Z,9.10
2018-03-14T10:01:01.697Z,9.50
2018-03-14T10:02:01.622Z,8.90
2018-03-14T10:03:01.559Z,9.60
2018-03-14T10:04:01.448Z,10.10
2018-03-14T10:05:01.380Z,9.70
2018-03-14T10:06:01.299Z,9.60
2018-03-14T10:07:01.211Z,8.60
2018-03-14T10:08:01.134Z,9.60
2018-03-14T10:09:01.048Z,8.60
2018-03-14T10:10:00.973Z,9.10
2018-03-14T10:11:00.886Z,9.30
2018-03-14T10:12:00.810Z,9.10
2018-03-14T10:13:00.739Z,9.80
2018-03-14T10:14:00.648Z,9.60
2018-03-14T10:15:00.577Z,9.10
2018-03-14T10:16:00.486Z,9.00
2018-03-14T10:17:00.414Z,9.10
2018-03-14T10:18:00.331Z,9.50
2018-03-14T10:19:00.249Z,9.50
2018-03-14T10:20:00.173Z,9.30
2018-03-14T10:21:00.090Z,8.60
2018-03-14T10:22:00.014Z,8.60
2018-03-14T10:22:59.926Z,9.00
2018-03-14T10:23:59.849Z,9.00
2018-03-14T10:24:59.763Z,9.20
2018-03-14T10:25:59.699Z,9.00
2018-03-14T10:26:59.599Z,8.80
2018-03-14T10:27:59.525Z,9.80
2018-03-14T10:28:59.438Z,8.90
2018-03-14T10:29:59.375Z,9.30
2018-03-14T10:30:59.288Z,9.00
2018-03-14T10:31:59.208Z,9.80
2018-03-14T10:32:59.125Z,9.20
2018-03-14T10:33:59.041Z,9.00
2018-03-14T10:34:58.963Z,9.50
2018-03-14T10:35:58.875Z,9.40
2018-03-14T10:36:58.805Z,9.10
2018-03-14T10:37:58.714Z,8.70
2018-03-14T10:38:58.641Z,9.30
2018-03-14T10:39:58.566Z,8.90
2018-03-14T10:40:58.481Z,8.80
2018-03-14T10:41:58.404Z,9.00
2018-03-14T10:42:58.316Z,8.00
2018-03-14T10:43:58.238Z,8.40
2018-03-14T10:44:58.162Z,9.10
2018-03-14T10:45:58.076Z,9.20
2018-03-14T10:46:58.002Z,8.60
2018-03-14T10:47:57.914Z,8.30
2018-03-14T10:48:57.841Z,8.40
2018-03-14T10:49:57.751Z,8.80
2018-03-14T10:50:57.677Z,8.70
2018-03-14T10:51:57.601Z,9.10
2018-03-14T10:52:57.518Z,8.30
2018-03-14T10:53:57.427Z,8.60
2018-03-14T10:54:57.359Z,8.70
2018-03-14T10:55:57.266Z,9.40
2018-03-14T10:56:57.201Z,9.20
2018-03-14T10:57:57.115Z,8.30
2018-03-14T10:58:57.030Z,9.00
2018-03-14T10:59:56.957Z,9.30
2018-03-14T11:00:56.865Z,9.30
2018-03-14T11:01:56.805Z,9.40
2018-03-14T11:02:56.703Z,9.50
2018-03-14T11:03:56.632Z,9.20
2018-03-14T11:04:56.540Z,9.90
2018-03-14T11:05:56.469Z,9.70
2018-03-14T11:06:56.379Z,9.40
2018-03-14T11:07:56.304Z,9.60
2018-03-14T11:08:56.232Z,10.00
2018-03-14T11:09:56.143Z,10.70
2018-03-14T11:10:56.120Z,9.70
2018-03-14T11:11:55.979Z,9.90
2018-03-14T11:12:55.904Z,9.60
2018-03-14T11:13:55.816Z,10.50
2018-03-14T11:14:55.741Z,10.70
2018-03-14T11:15:55.654Z,10.30
2018-03-14T11:16:55.583Z,9.90
2018-03-14T11:17:55.496Z,10.30
2018-03-14T11:18:55.417Z,10.30
2018-03-14T11:19:55.332Z,10.60
2018-03-14T11:20:55.256Z,10.50
2018-03-14T11:21:55.168Z,9.90
2018-03-14T11:22:55.091Z,10.00
2018-03-14T11:23:55.007Z,10.50
2018-03-14T11:24:54.934Z,10.80
2018-03-14T11:25:54.844Z,10.40
2018-03-14T11:26:54.771Z,11.30
2018-03-14T11:27:54.680Z,10.90
2018-03-14T11:28:54.606Z,11.60
2018-03-14T11:29:54.519Z,11.00
2018-03-14T11:30:54.447Z,11.10
2018-03-14T11:31:54.357Z,11.30
2018-03-14T11:32:54.284Z,10.70
2018-03-14T11:33:54.197Z,11.30
2018-03-14T11:34:54.118Z,11.10
2018-03-14T11:35:54.038Z,10.60
2018-03-14T11:36:53.961Z,11.10
2018-03-14T11:37:53.871Z,11.50
2018-03-14T11:38:53.794Z,11.30
2018-03-14T11:39:53.712Z,12.20
2018-03-14T11:40:53.632Z,12.00
2018-03-14T11:41:53.548Z,11.80
2018-03-14T11:42:53.483Z,11.90
2018-03-14T11:43:53.383Z,12.50
2018-03-14T11:44:53.311Z,12.00
2018-03-14T11:45:53.220Z,11.40
2018-03-14T11:46:53.148Z,11.50
2018-03-14T11:47:53.057Z,11.70
2018-03-14T11:48:52.986Z,11.90
2018-03-14T11:49:52.895Z,12.00
2018-03-14T11:50:52.820Z,12.10
2018-03-14T11:51:52.737Z,11.80
2018-03-14T11:52:52.658Z,11.60
2018-03-14T11:53:52.576Z,10.90
2018-03-14T11:54:52.488Z,12.30
2018-03-14T11:55:52.410Z,11.50
2018-03-14T11:56:52.323Z,11.90
2018-03-14T11:57:52.249Z,11.30
2018-03-14T11:58:52.173Z,11.40
2018-03-14T11:59:52.084Z,12.30
2018-03-14T12:00:52.010Z,12.40
2018-03-14T12:01:51.921Z,11.20
2018-03-14T12:02:51.838Z,12.80
2018-03-14T12:03:51.766Z,11.80
2018-03-14T12:04:51.673Z,11.80
2018-03-14T12:05:51.602Z,11.70
2018-03-14T12:06:51.510Z,11.80
2018-03-14T12:07:51.435Z,12.20
2018-03-14T12:08:51.348Z,12.20
2018-03-14T12:09:51.272Z,12.10
2018-03-14T12:10:51.191Z,12.30
2018-03-14T12:11:51.111Z,12.20
2018-03-14T12:12:51.023Z,12.30
2018-03-14T12:13:50.952Z,11.80
2018-03-14T12:14:50.865Z,12.60
2018-03-14T12:15:50.774Z,12.20
2018-03-14T12:16:50.700Z,12.10
2018-03-14T12:17:50.616Z,12.00
2018-03-14T12:18:50.540Z,11.90
2018-03-14T12:19:50.450Z,11.40
2018-03-14T12:20:50.374Z,11.30
2018-03-14T12:21:50.289Z,11.60
2018-03-14T12:22:50.212Z,11.30
2018-03-14T12:23:50.127Z,11.90
2018-03-14T12:24:50.050Z,11.00
2018-03-14T12:25:49.962Z,11.50
2018-03-14T12:26:49.894Z,10.60
2018-03-14T12:27:49.803Z,11.00
2018-03-14T12:28:49.728Z,11.10
2018-03-14T12:29:49.639Z,11.00
2018-03-14T12:30:49.570Z,10.70
2018-03-14T12:31:49.480Z,10.50
2018-03-14T12:32:49.403Z,10.90
2018-03-14T12:33:49.320Z,10.90
2018-03-14T12:34:49.242Z,10.50
2018-03-14T12:35:49.152Z,10.40
2018-03-14T12:36:49.080Z,10.90
2018-03-14T12:37:49.002Z,10.80
2018-03-14T12:38:48.913Z,10.50
2018-03-14T12:39:48.827Z,10.50
2018-03-14T12:40:48.752Z,10.30
2018-03-14T12:41:48.692Z,10.70
2018-03-14T12:42:48.589Z,11.30
2018-03-14T12:43:48.515Z,10.70
2018-03-14T12:44:48.426Z,10.50
2018-03-14T12:45:48.362Z,11.50
2018-03-14T12:46:48.266Z,10.90
2018-03-14T12:47:48.195Z,10.10
2018-03-14T12:48:48.101Z,10.40
2018-03-14T12:49:48.027Z,10.30
2018-03-14T12:50:47.945Z,11.10
2018-03-14T12:51:47.867Z,10.90
2018-03-14T12:52:47.779Z,11.00
2018-03-14T12:53:47.707Z,10.70
2018-03-14T12:54:47.615Z,10.90
2018-03-14T12:55:47.540Z,10.20
2018-03-14T12:56:47.456Z,10.70
2018-03-14T12:57:47.390Z,10.70
2018-03-14T12:58:47.295Z,10.90
2018-03-14T12:59:47.218Z,11.00
2018-03-14T13:00:47.129Z,10.60
2018-03-14T13:01:47.053Z,11.00
2018-03-14T13:02:46.965Z,10.10